Time;durP1;ratioP1;P1;durP2;ratioP2;P2;SDS_P1;SDS_P2;PMS_P1;PMS_P2;Temp;Humidity;BMP_temperature;BMP_pressure;BME280_temperature;BME280_humidity;BME280_pressure;Samples;Min_cycle;Max_cycle;Signal;HPM_P1;HPM_P2
2022/01/12 00:01:36;;;;;;;15.90;11.03;;;-0.30;99.90;;;;;;4955200;29;20410;-66
2022/01/12 00:04:02;;;;;;;14.23;11.00;;;-0.30;99.90;;;;;;4955000;28;20438;-64
2022/01/12 00:06:28;;;;;;;16.73;11.57;;;-0.30;99.90;;;;;;4955095;29;20230;-65
2022/01/12 00:08:54;;;;;;;15.20;10.67;;;-0.40;99.90;;;;;;4955288;29;20266;-64
2022/01/12 00:11:22;;;;;;;15.60;10.87;;;-0.40;99.90;;;;;;4954875;28;20512;-66
2022/01/12 00:13:51;;;;;;;15.33;10.90;;;-0.40;99.90;;;;;;4954785;28;20247;-64
2022/01/12 00:16:17;;;;;;;17.30;11.83;;;-0.40;99.90;;;;;;4954926;29;20946;-64
2022/01/12 00:18:45;;;;;;;15.37;10.97;;;-0.50;99.90;;;;;;4955151;29;20409;-64
2022/01/12 00:21:14;;;;;;;15.73;11.17;;;-0.50;99.90;;;;;;4955056;29;20410;-65
2022/01/12 00:23:40;;;;;;;15.03;10.83;;;-0.60;99.90;;;;;;4954794;28;20800;-64
2022/01/12 00:26:10;;;;;;;19.00;13.20;;;-0.60;99.90;;;;;;4953592;28;20406;-64
2022/01/12 00:34:10;;;;;;;18.07;13.20;;;-0.80;99.90;;;;;;4959633;28;20463;-64
2022/01/12 00:36:36;;;;;;;19.23;13.27;;;-0.80;99.90;;;;;;4948396;28;20421;-65
2022/01/12 00:39:05;;;;;;;16.80;12.03;;;-0.80;99.90;;;;;;4973759;28;20857;-64
2022/01/12 00:41:31;;;;;;;19.03;11.83;;;-0.70;99.90;;;;;;4973953;28;20408;-64
2022/01/12 00:44:00;;;;;;;15.90;10.80;;;-0.70;99.90;;;;;;4965925;28;20449;-64
2022/01/12 00:46:30;;;;;;;15.60;11.13;;;-0.70;99.90;;;;;;4954311;29;20175;-63
2022/01/12 00:48:57;;;;;;;16.13;11.03;;;-0.70;99.90;;;;;;4954433;29;20815;-65
2022/01/12 00:51:26;;;;;;;14.90;11.03;;;-0.70;99.90;;;;;;4954323;29;20795;-64
2022/01/12 00:53:53;;;;;;;14.87;10.00;;;-0.70;99.90;;;;;;4953920;28;20962;-64
2022/01/12 00:56:19;;;;;;;15.93;11.50;;;-0.80;99.90;;;;;;4954132;29;20406;-64
2022/01/12 00:58:45;;;;;;;16.20;11.77;;;-0.80;99.90;;;;;;4954142;29;20433;-64
2022/01/12 01:01:11;;;;;;;15.43;10.53;;;-0.80;99.90;;;;;;4954022;29;20254;-63
2022/01/12 01:03:36;;;;;;;16.03;11.27;;;-0.80;99.90;;;;;;4953745;28;20186;-63
2022/01/12 01:06:02;;;;;;;15.83;11.13;;;-0.90;99.90;;;;;;4953883;29;20170;-64
2022/01/12 01:08:28;;;;;;;14.20;10.43;;;-1.00;99.90;;;;;;4954051;29;20215;-65
2022/01/12 01:10:56;;;;;;;16.57;11.93;;;-1.00;99.90;;;;;;4954014;29;20206;-65
2022/01/12 01:13:27;;;;;;;17.30;11.93;;;-1.00;99.90;;;;;;4953854;28;20195;-65
2022/01/12 01:16:41;;;;;;;15.83;11.43;;;-1.00;99.90;;;;;;4953727;29;20978;-64
2022/01/12 01:26:58;;;;;;;14.87;9.83;;;-1.00;99.90;;;;;;4953923;29;21107;-64
2022/01/12 01:29:23;;;;;;;15.87;11.60;;;-1.10;99.90;;;;;;4953869;29;20410;-65
2022/01/12 01:31:49;;;;;;;18.17;11.60;;;-1.00;99.90;;;;;;4953822;29;20184;-65
2022/01/12 01:34:15;;;;;;;15.80;10.53;;;-1.00;99.90;;;;;;4953338;28;20214;-63
2022/01/12 01:36:50;;;;;;;16.90;11.40;;;-1.10;99.90;;;;;;4953270;29;20182;-65
2022/01/12 01:39:19;;;;;;;14.60;10.53;;;-1.10;99.90;;;;;;4953716;29;20768;-65
2022/01/12 01:41:54;;;;;;;15.30;10.30;;;-1.10;99.90;;;;;;4953684;29;20803;-65
2022/01/12 01:54:58;;;;;;;14.90;10.53;;;-1.20;99.90;;;;;;4967685;28;20475;-64
2022/01/12 01:57:24;;;;;;;14.87;10.27;;;-1.40;99.90;;;;;;4975306;28;20433;-64
2022/01/12 01:59:50;;;;;;;14.50;10.60;;;-1.40;99.90;;;;;;4973692;28;20184;-64
2022/01/12 02:02:16;;;;;;;13.83;9.93;;;-1.50;99.90;;;;;;4976594;28;20420;-66
2022/01/12 02:04:42;;;;;;;16.00;11.60;;;-1.50;99.90;;;;;;4976383;28;20861;-63
2022/01/12 02:07:07;;;;;;;14.97;10.63;;;-1.60;99.90;;;;;;4973889;28;20192;-64
2022/01/12 02:09:34;;;;;;;15.67;10.57;;;-1.60;99.90;;;;;;4972567;28;20177;-64
2022/01/12 02:12:01;;;;;;;16.47;11.27;;;-1.60;99.90;;;;;;4976407;28;20177;-64
2022/01/12 02:14:28;;;;;;;15.93;10.40;;;-1.60;99.90;;;;;;4976069;28;20970;-64
2022/01/12 02:17:03;;;;;;;15.50;10.47;;;-1.60;99.90;;;;;;4976599;28;20453;-65
2022/01/12 02:35:56;;;;;;;15.10;10.13;;;-1.90;99.90;;;;;;4897171;29;20471;-63
2022/01/12 02:41:07;;;;;;;16.00;11.10;;;-1.80;99.90;;;;;;4897931;29;20412;-57
2022/01/12 02:54:00;;;;;;;16.73;10.73;;;-2.00;99.90;;;;;;4896987;29;20978;-57
2022/01/12 02:56:30;;;;;;;15.80;10.57;;;-2.00;99.90;;;;;;4897425;29;20465;-58
2022/01/12 02:58:59;;;;;;;15.07;10.03;;;-2.10;99.90;;;;;;4892633;29;20800;-57
2022/01/12 03:04:06;;;;;;;13.23;9.57;;;-2.30;99.90;;;;;;4956438;28;21019;-57
2022/01/12 03:06:37;;;;;;;15.43;9.13;;;-2.30;99.90;;;;;;4955240;28;20824;-61
2022/01/12 03:09:08;;;;;;;13.07;8.63;;;-2.40;99.90;;;;;;4956370;29;20406;-58
2022/01/12 03:11:35;;;;;;;12.77;9.00;;;-2.40;99.90;;;;;;4956269;29;20417;-58
2022/01/12 03:14:01;;;;;;;11.77;8.53;;;-2.50;99.90;;;;;;4953249;28;20872;-56
2022/01/12 03:16:28;;;;;;;11.37;8.40;;;-2.40;99.90;;;;;;4968545;28;20437;-57
2022/01/12 03:18:59;;;;;;;13.00;8.30;;;-2.40;99.90;;;;;;4966602;28;20547;-60
2022/01/12 03:21:28;;;;;;;11.23;7.97;;;-2.40;99.90;;;;;;4975020;28;20437;-58
2022/01/12 03:23:54;;;;;;;11.93;8.47;;;-2.40;99.90;;;;;;4968709;28;20437;-59
2022/01/12 03:26:21;;;;;;;12.50;8.13;;;-2.40;99.90;;;;;;4974974;28;20572;-59
2022/01/12 03:28:52;;;;;;;10.93;7.57;;;-2.50;99.90;;;;;;4975105;28;20432;-62
2022/01/12 03:31:23;;;;;;;13.90;8.50;;;-2.50;99.90;;;;;;4973172;28;20449;-60
2022/01/12 03:33:56;;;;;;;11.67;7.90;;;-2.60;99.90;;;;;;4974576;28;20453;-62
2022/01/12 03:39:08;;;;;;;12.10;9.00;;;-2.60;99.90;;;;;;4975324;28;20413;-58
2022/01/12 03:41:35;;;;;;;11.97;8.33;;;-2.60;99.90;;;;;;4975012;28;20794;-58
2022/01/12 03:44:03;;;;;;;12.13;7.60;;;-2.60;99.90;;;;;;4974563;28;20437;-60
2022/01/12 03:46:36;;;;;;;11.33;7.90;;;-2.50;99.90;;;;;;4974854;28;20498;-58
2022/01/12 03:49:03;;;;;;;9.97;7.57;;;-2.40;99.90;;;;;;4973334;28;20417;-58
2022/01/12 03:51:28;;;;;;;10.87;7.67;;;-2.40;99.90;;;;;;4974893;28;20788;-59
2022/01/12 03:53:54;;;;;;;11.83;7.60;;;-2.30;99.90;;;;;;4974462;28;20429;-57
2022/01/12 03:56:19;;;;;;;11.67;7.90;;;-2.20;99.90;;;;;;4974547;28;20666;-59
2022/01/12 03:58:45;;;;;;;9.93;7.20;;;-2.10;99.90;;;;;;4974674;28;20174;-55
2022/01/12 04:01:10;;;;;;;10.37;7.50;;;-2.00;99.90;;;;;;4974614;28;20173;-59
2022/01/12 04:03:41;;;;;;;10.90;7.73;;;-2.00;99.90;;;;;;4957428;28;20236;-55
2022/01/12 04:08:50;;;;;;;9.97;7.33;;;-1.80;99.90;;;;;;4967011;28;20413;-61
2022/01/12 04:11:16;;;;;;;11.20;7.10;;;-1.80;99.90;;;;;;4974470;28;20486;-56
2022/01/12 04:13:43;;;;;;;11.50;7.50;;;-1.70;99.90;;;;;;4974254;28;20202;-55
2022/01/12 04:16:11;;;;;;;11.20;6.83;;;-1.70;99.90;;;;;;4974217;28;20178;-58
2022/01/12 04:18:37;;;;;;;10.50;7.07;;;-1.70;99.90;;;;;;4974000;28;21057;-59
2022/01/12 04:21:06;;;;;;;11.57;7.77;;;-1.60;99.90;;;;;;4974473;28;20418;-58
2022/01/12 04:23:32;;;;;;;10.00;6.93;;;-1.50;99.90;;;;;;4965883;28;20228;-60
2022/01/12 04:25:59;;;;;;;10.70;7.60;;;-1.50;99.90;;;;;;4973725;28;20445;-58
2022/01/12 04:28:29;;;;;;;10.30;7.30;;;-1.50;99.90;;;;;;4974097;28;20181;-57
2022/01/12 04:30:56;;;;;;;9.67;6.67;;;-1.50;99.90;;;;;;4974105;28;20452;-59
2022/01/12 04:33:23;;;;;;;11.03;7.40;;;-1.50;99.90;;;;;;4973779;28;20878;-59
2022/01/12 04:35:54;;;;;;;8.80;6.50;;;-1.60;99.90;;;;;;4973720;28;20559;-60
2022/01/12 04:38:22;;;;;;;10.10;7.10;;;-1.60;99.90;;;;;;4960343;28;20494;-60
2022/01/12 04:40:48;;;;;;;9.13;6.77;;;-1.60;99.90;;;;;;4967769;28;20460;-56
2022/01/12 04:43:14;;;;;;;9.73;6.83;;;-1.50;99.90;;;;;;4970988;28;20441;-58
2022/01/12 04:50:48;;;;;;;9.13;7.03;;;-1.50;99.90;;;;;;4973865;28;20460;-57
2022/01/12 04:53:15;;;;;;;8.80;6.50;;;-1.40;99.90;;;;;;4973639;28;20531;-60
2022/01/12 04:55:41;;;;;;;9.67;6.90;;;-1.40;99.90;;;;;;4968905;28;20496;-61
2022/01/12 04:58:07;;;;;;;9.77;7.20;;;-1.40;99.90;;;;;;4973443;28;20460;-59
2022/01/12 05:00:34;;;;;;;8.53;6.53;;;-1.40;99.90;;;;;;4973656;28;20442;-58
2022/01/12 05:13:49;;;;;;;8.93;6.70;;;-1.50;99.90;;;;;;4968476;28;20436;-55
2022/01/12 05:16:14;;;;;;;9.87;6.63;;;-1.40;99.90;;;;;;4973036;28;20405;-60
2022/01/12 05:18:42;;;;;;;7.30;6.20;;;-1.50;99.90;;;;;;4973207;28;20950;-57
2022/01/12 05:21:09;;;;;;;10.60;6.87;;;-1.50;99.90;;;;;;4973327;28;20675;-59
2022/01/12 05:23:35;;;;;;;8.97;6.77;;;-1.50;99.90;;;;;;4973277;28;20440;-57
2022/01/12 05:26:02;;;;;;;9.10;6.80;;;-1.40;99.90;;;;;;4972795;28;20488;-61
2022/01/12 05:28:28;;;;;;;9.17;6.57;;;-1.40;99.90;;;;;;4973047;28;20505;-58
2022/01/12 05:30:55;;;;;;;9.10;6.10;;;-1.40;99.90;;;;;;4972483;28;20416;-61
2022/01/12 05:33:24;;;;;;;10.83;6.73;;;-1.40;99.90;;;;;;4972987;28;20468;-61
2022/01/12 05:35:50;;;;;;;9.30;6.13;;;-1.40;99.90;;;;;;4972732;28;20882;-58
2022/01/12 05:38:16;;;;;;;9.37;6.90;;;-1.40;99.90;;;;;;4973004;28;20409;-59
2022/01/12 05:40:46;;;;;;;9.63;6.87;;;-1.50;99.90;;;;;;4973558;28;20767;-59
2022/01/12 05:43:12;;;;;;;9.53;6.67;;;-1.50;99.90;;;;;;4973232;28;20186;-59
2022/01/12 05:45:39;;;;;;;9.90;6.70;;;-1.50;99.90;;;;;;4970522;28;20425;-57
2022/01/12 05:50:34;;;;;;;8.83;6.17;;;-1.60;99.90;;;;;;4972883;28;20948;-58
2022/01/12 05:52:59;;;;;;;8.77;6.43;;;-1.50;99.90;;;;;;4972864;28;20421;-58
2022/01/12 05:55:25;;;;;;;10.00;6.73;;;-1.50;99.90;;;;;;4971065;28;20206;-60
2022/01/12 05:57:51;;;;;;;8.53;6.27;;;-1.50;99.90;;;;;;4972846;28;20202;-56
2022/01/12 06:00:19;;;;;;;9.00;6.40;;;-1.50;99.90;;;;;;4972917;28;20229;-56
2022/01/12 06:02:44;;;;;;;9.33;6.80;;;-1.50;99.90;;;;;;4972701;28;20256;-59
2022/01/12 06:05:10;;;;;;;9.60;6.63;;;-1.50;99.90;;;;;;4972462;28;20853;-60
2022/01/12 06:07:36;;;;;;;9.67;6.70;;;-1.50;99.90;;;;;;4972658;28;20375;-57
2022/01/12 06:10:02;;;;;;;12.00;6.27;;;-1.50;99.90;;;;;;4972746;28;20208;-58
2022/01/12 06:12:27;;;;;;;9.73;6.97;;;-1.60;99.90;;;;;;4972675;28;20211;-58
2022/01/12 06:14:53;;;;;;;11.00;7.33;;;-1.60;99.90;;;;;;4968590;28;20484;-58
2022/01/12 06:17:19;;;;;;;9.20;6.53;;;-1.60;99.90;;;;;;4954791;28;20249;-65
2022/01/12 06:19:44;;;;;;;10.90;7.17;;;-1.60;99.90;;;;;;4965353;28;20246;-62
2022/01/12 06:22:10;;;;;;;9.23;7.03;;;-1.60;99.90;;;;;;4961553;28;20226;-56
2022/01/12 06:24:36;;;;;;;10.23;6.90;;;-1.50;99.90;;;;;;4960413;28;20197;-56
2022/01/12 06:27:04;;;;;;;10.17;7.10;;;-1.50;99.90;;;;;;4972421;28;20186;-61
2022/01/12 06:29:42;;;;;;;10.73;7.80;;;-1.50;99.90;;;;;;4972477;28;20174;-55
2022/01/12 06:32:09;;;;;;;11.83;8.10;;;-1.40;99.90;;;;;;4970075;28;20417;-57
2022/01/12 06:34:34;;;;;;;11.60;7.47;;;-1.40;99.90;;;;;;4955585;28;20505;-59
2022/01/12 06:37:00;;;;;;;11.00;7.63;;;-1.40;99.90;;;;;;4952902;29;20446;-59
2022/01/12 06:39:26;;;;;;;10.33;7.77;;;-1.40;99.90;;;;;;4934676;29;20562;-59
2022/01/12 06:41:54;;;;;;;12.10;8.57;;;-1.40;99.90;;;;;;4954196;28;20187;-55
2022/01/12 06:44:21;;;;;;;12.83;8.27;;;-1.50;99.90;;;;;;4967338;28;20198;-58
2022/01/12 06:46:51;;;;;;;11.77;8.20;;;-1.50;99.90;;;;;;4966095;28;20429;-58
2022/01/12 06:49:18;;;;;;;10.83;8.00;;;-1.50;99.90;;;;;;4961337;28;20452;-59
2022/01/12 06:51:45;;;;;;;11.57;7.83;;;-1.50;99.90;;;;;;4975631;28;20953;-59
2022/01/12 06:54:12;;;;;;;10.37;7.60;;;-1.50;99.90;;;;;;4975127;28;20460;-56
2022/01/12 06:56:38;;;;;;;9.90;6.80;;;-1.50;99.90;;;;;;4975717;28;20444;-57
2022/01/12 06:59:04;;;;;;;9.63;6.60;;;-1.40;99.90;;;;;;4961382;28;20438;-60
2022/01/12 07:01:30;;;;;;;9.47;7.03;;;-1.30;99.90;;;;;;4956290;29;20258;-61
2022/01/12 07:03:55;;;;;;;10.23;7.53;;;-1.30;99.90;;;;;;4954707;28;20194;-58
2022/01/12 07:06:22;;;;;;;8.80;6.80;;;-1.20;99.90;;;;;;4955949;28;21024;-58
2022/01/12 07:08:47;;;;;;;11.80;7.47;;;-1.20;99.90;;;;;;4962051;28;20248;-58
2022/01/12 07:11:13;;;;;;;9.20;7.07;;;-1.20;99.90;;;;;;4961820;28;20418;-58
2022/01/12 07:13:38;;;;;;;10.30;7.83;;;-1.20;99.90;;;;;;4956099;28;20268;-57
2022/01/12 07:16:04;;;;;;;12.33;8.87;;;-1.10;99.90;;;;;;4967073;28;20233;-55
2022/01/12 07:18:30;;;;;;;11.23;7.87;;;-1.10;99.90;;;;;;4975437;28;20257;-58
2022/01/12 07:20:56;;;;;;;10.43;7.40;;;-1.00;99.90;;;;;;4975190;28;20201;-58
2022/01/12 07:23:22;;;;;;;11.80;7.70;;;-0.90;99.90;;;;;;4975173;28;20182;-58
2022/01/12 07:25:48;;;;;;;10.60;8.03;;;-0.90;99.90;;;;;;4975095;28;20480;-59
2022/01/12 07:28:14;;;;;;;10.57;7.53;;;-0.90;99.90;;;;;;4975125;28;20421;-58
2022/01/12 07:30:39;;;;;;;10.17;7.60;;;-0.90;99.90;;;;;;4975124;28;20216;-60
2022/01/12 07:33:05;;;;;;;9.63;7.23;;;-0.90;99.90;;;;;;4973739;28;20209;-57
2022/01/12 07:35:30;;;;;;;11.00;7.97;;;-0.80;99.90;;;;;;4962779;28;20198;-59
2022/01/12 07:37:56;;;;;;;10.70;7.50;;;-0.90;99.90;;;;;;4945644;29;20261;-57
2022/01/12 07:40:21;;;;;;;9.60;7.30;;;-0.90;99.90;;;;;;4954904;29;20225;-54
2022/01/12 07:42:47;;;;;;;11.10;7.77;;;-0.80;99.90;;;;;;4954058;29;20186;-59
2022/01/12 07:45:13;;;;;;;9.90;7.73;;;-0.70;99.90;;;;;;4955265;29;20190;-60
2022/01/12 07:47:39;;;;;;;11.10;8.20;;;-0.70;99.90;;;;;;4955753;29;20218;-57
2022/01/12 07:50:07;;;;;;;10.30;7.67;;;-0.60;99.90;;;;;;4967260;28;20889;-60
2022/01/12 07:52:33;;;;;;;9.27;7.07;;;-0.50;99.90;;;;;;4959832;28;20243;-58
2022/01/12 07:54:59;;;;;;;9.73;7.33;;;-0.40;99.90;;;;;;4926279;29;20877;-57
2022/01/12 07:57:25;;;;;;;12.90;9.47;;;-0.40;99.90;;;;;;4936068;29;20199;-57
2022/01/12 07:59:50;;;;;;;11.80;8.93;;;-0.30;99.90;;;;;;4950465;29;20451;-56
2022/01/12 08:02:16;;;;;;;10.03;8.10;;;-0.20;99.90;;;;;;4937224;29;20230;-59
2022/01/12 08:04:42;;;;;;;9.60;7.17;;;-0.10;99.90;;;;;;4952055;28;20241;-61
2022/01/12 08:07:10;;;;;;;11.07;8.40;;;-0.10;99.90;;;;;;4956624;28;20205;-59
2022/01/12 08:09:39;;;;;;;11.20;8.10;;;-0.10;99.90;;;;;;4967633;28;20178;-59
2022/01/12 08:12:05;;;;;;;13.47;8.73;;;-0.20;99.90;;;;;;4956803;28;20815;-58
2022/01/12 08:14:31;;;;;;;13.03;9.00;;;-0.10;99.90;;;;;;4968889;28;20465;-59
2022/01/12 08:16:56;;;;;;;11.40;8.80;;;0.00;99.90;;;;;;4973780;28;20938;-59
2022/01/12 08:19:23;;;;;;;11.67;8.53;;;0.00;99.90;;;;;;4973052;28;20186;-57
2022/01/12 08:21:49;;;;;;;11.50;8.63;;;0.10;99.90;;;;;;4942121;28;20553;-60
2022/01/12 08:24:16;;;;;;;12.57;9.67;;;0.10;99.90;;;;;;4973682;28;20437;-60
2022/01/12 08:26:42;;;;;;;13.40;10.10;;;0.10;99.90;;;;;;4974418;28;20273;-57
2022/01/12 08:29:14;;;;;;;13.20;10.37;;;0.10;99.90;;;;;;4974648;28;20771;-60
2022/01/12 08:31:44;;;;;;;13.23;10.00;;;0.40;99.90;;;;;;4974313;28;20408;-57
2022/01/12 08:34:10;;;;;;;13.07;9.93;;;0.70;99.90;;;;;;4973764;28;20485;-58
2022/01/12 08:36:37;;;;;;;13.90;10.43;;;0.90;99.90;;;;;;4974079;28;20413;-55
2022/01/12 08:39:07;;;;;;;12.77;9.50;;;1.20;99.90;;;;;;4967588;28;20810;-57
2022/01/12 08:41:32;;;;;;;12.30;9.50;;;1.40;99.90;;;;;;4973829;28;20424;-59
2022/01/12 08:43:58;;;;;;;13.97;9.77;;;1.60;99.90;;;;;;4973472;28;20437;-62
2022/01/12 08:46:24;;;;;;;12.03;9.30;;;1.90;99.90;;;;;;4973738;28;20694;-59
2022/01/12 08:48:49;;;;;;;11.73;9.07;;;2.00;99.90;;;;;;4973890;28;20253;-59
2022/01/12 08:51:15;;;;;;;12.87;9.63;;;2.00;99.90;;;;;;4973829;28;20178;-58
2022/01/12 08:53:40;;;;;;;10.63;8.87;;;2.00;99.90;;;;;;4973254;28;20202;-61
2022/01/12 08:56:07;;;;;;;12.03;9.33;;;2.00;99.90;;;;;;4973314;28;20372;-60
2022/01/12 08:58:33;;;;;;;10.57;8.50;;;2.10;99.90;;;;;;4973659;28;20201;-57
2022/01/12 09:01:03;;;;;;;10.63;8.57;;;2.10;99.90;;;;;;4973558;28;20421;-60
2022/01/12 09:03:32;;;;;;;11.20;9.20;;;2.10;99.90;;;;;;4973661;28;20197;-58
2022/01/12 09:05:57;;;;;;;12.07;9.33;;;2.00;99.90;;;;;;4972247;28;20421;-60
2022/01/12 09:08:23;;;;;;;11.30;8.67;;;2.00;99.90;;;;;;4973205;28;20902;-56
2022/01/12 09:10:49;;;;;;;12.63;9.67;;;1.90;99.90;;;;;;4973434;28;20181;-57
2022/01/12 09:13:15;;;;;;;12.17;9.70;;;1.90;99.90;;;;;;4966893;28;20202;-58
2022/01/12 09:15:40;;;;;;;11.70;9.13;;;1.90;99.90;;;;;;4955455;28;20205;-62
2022/01/12 09:18:06;;;;;;;11.43;8.87;;;1.90;99.90;;;;;;4973272;28;20169;-57
2022/01/12 09:20:32;;;;;;;11.63;9.00;;;1.90;99.90;;;;;;4972974;28;20174;-59
2022/01/12 09:22:58;;;;;;;11.90;9.47;;;2.00;99.90;;;;;;4954105;28;20198;-58
2022/01/12 09:25:23;;;;;;;11.53;8.60;;;2.00;99.90;;;;;;4971565;28;20174;-57
2022/01/12 09:27:49;;;;;;;11.73;9.50;;;2.00;99.90;;;;;;4972597;28;20181;-58
2022/01/12 09:30:18;;;;;;;11.77;8.77;;;2.00;99.90;;;;;;4973122;28;20185;-58
2022/01/12 09:32:45;;;;;;;13.97;10.53;;;2.00;99.90;;;;;;4964572;28;20671;-59
2022/01/12 09:35:12;;;;;;;11.73;8.80;;;2.00;99.90;;;;;;4958206;28;20530;-55
2022/01/12 09:37:39;;;;;;;12.53;9.70;;;1.90;99.90;;;;;;4962302;28;20418;-59
2022/01/12 09:40:05;;;;;;;13.37;10.20;;;1.90;99.90;;;;;;4930768;28;20444;-58
2022/01/12 09:42:32;;;;;;;12.47;10.00;;;2.00;99.90;;;;;;4966853;28;20448;-59
2022/01/12 09:44:58;;;;;;;14.33;10.77;;;2.20;99.90;;;;;;4955927;28;20441;-63
2022/01/12 09:47:23;;;;;;;13.90;10.23;;;2.30;99.90;;;;;;4940596;28;20422;-61
2022/01/12 09:49:49;;;;;;;11.63;9.17;;;2.40;99.90;;;;;;4960716;28;20559;-61
2022/01/12 09:52:15;;;;;;;14.87;10.63;;;2.40;99.90;;;;;;4930441;29;20637;-59
2022/01/12 09:54:40;;;;;;;12.20;9.83;;;2.50;99.90;;;;;;4941806;29;20251;-62
2022/01/12 09:57:07;;;;;;;13.73;10.47;;;2.60;99.90;;;;;;4942777;29;20184;-58
2022/01/12 09:59:33;;;;;;;13.40;10.73;;;2.60;99.90;;;;;;4945778;29;20640;-58
2022/01/12 10:01:59;;;;;;;13.90;11.00;;;2.60;99.90;;;;;;4943554;29;20960;-56
2022/01/12 10:04:30;;;;;;;14.03;10.67;;;2.60;99.90;;;;;;4942486;29;20797;-61
2022/01/12 10:07:04;;;;;;;12.93;10.07;;;2.60;99.90;;;;;;4942105;29;20412;-60
2022/01/12 10:09:39;;;;;;;13.37;9.67;;;2.60;99.90;;;;;;4941970;29;20430;-61
2022/01/12 10:12:13;;;;;;;13.63;10.87;;;2.50;99.90;;;;;;4943924;29;20990;-59
2022/01/12 10:14:44;;;;;;;14.43;10.77;;;2.50;99.90;;;;;;4943473;28;20483;-62
2022/01/12 10:17:10;;;;;;;13.13;10.20;;;2.30;99.90;;;;;;4946301;28;20422;-58
2022/01/12 10:19:36;;;;;;;13.77;10.30;;;2.40;99.90;;;;;;4945526;28;20449;-62
2022/01/12 10:22:05;;;;;;;13.37;11.00;;;2.40;99.90;;;;;;4957834;28;20449;-59
2022/01/12 10:24:35;;;;;;;12.53;9.67;;;2.40;99.90;;;;;;4952545;28;20728;-61
2022/01/12 10:27:00;;;;;;;12.10;10.00;;;2.70;99.90;;;;;;4947429;29;20429;-62
2022/01/12 10:29:28;;;;;;;14.27;10.63;;;2.80;99.90;;;;;;4946346;29;20429;-59
2022/01/12 10:32:01;;;;;;;15.13;11.80;;;2.80;99.90;;;;;;4945327;29;20198;-61
2022/01/12 10:34:36;;;;;;;12.93;10.30;;;2.70;99.90;;;;;;4945760;29;20226;-57
2022/01/12 10:37:09;;;;;;;14.90;10.83;;;2.90;99.90;;;;;;4946891;29;20177;-60
2022/01/12 10:39:41;;;;;;;13.97;10.90;;;3.20;99.90;;;;;;4947232;29;20167;-60
2022/01/12 10:42:13;;;;;;;14.33;10.57;;;3.40;99.90;;;;;;4946430;29;20576;-57
2022/01/12 10:44:41;;;;;;;13.70;10.40;;;3.60;99.90;;;;;;4944824;29;20255;-56
2022/01/12 10:47:21;;;;;;;12.97;10.50;;;3.70;99.90;;;;;;4945949;29;20201;-57
2022/01/12 10:49:52;;;;;;;12.40;9.57;;;3.80;99.90;;;;;;4946969;29;20220;-59
2022/01/12 10:52:18;;;;;;;14.80;11.03;;;3.80;99.90;;;;;;4947086;29;20564;-57
2022/01/12 10:54:51;;;;;;;12.93;10.33;;;3.90;99.90;;;;;;4945352;29;20218;-55
2022/01/12 10:57:22;;;;;;;14.53;11.40;;;3.80;99.90;;;;;;4944863;29;20187;-64
2022/01/12 11:00:06;;;;;;;15.63;11.57;;;3.90;99.90;;;;;;4945630;29;20167;-60
2022/01/12 11:02:35;;;;;;;14.03;11.07;;;3.90;99.90;;;;;;4946121;29;20171;-61
2022/01/12 11:05:03;;;;;;;14.93;11.63;;;4.00;99.90;;;;;;4946370;29;20202;-64
2022/01/12 11:07:31;;;;;;;15.17;12.60;;;4.10;99.90;;;;;;4945620;29;20194;-60
2022/01/12 11:09:59;;;;;;;16.33;13.23;;;4.30;99.90;;;;;;4944053;29;20183;-61
2022/01/12 11:12:26;;;;;;;13.70;11.60;;;4.40;99.90;;;;;;4945501;29;20206;-62
2022/01/12 11:14:51;;;;;;;13.53;11.27;;;4.60;99.90;;;;;;4945549;29;20294;-62
2022/01/12 11:17:17;;;;;;;13.50;11.03;;;4.70;99.90;;;;;;4947100;29;20278;-62
2022/01/12 11:20:07;;;;;;;14.93;11.80;;;4.70;99.90;;;;;;4953463;29;20265;-60
2022/01/12 11:22:44;;;;;;;14.73;11.87;;;4.70;99.90;;;;;;4955925;29;20183;-59
2022/01/12 11:25:18;;;;;;;15.30;12.20;;;4.60;99.90;;;;;;4955304;29;20178;-59
2022/01/12 11:27:44;;;;;;;15.87;11.30;;;4.60;99.90;;;;;;4954985;28;20659;-59
2022/01/12 11:30:22;;;;;;;14.80;11.50;;;4.50;99.90;;;;;;4955431;29;20338;-58
2022/01/12 11:33:03;;;;;;;14.37;11.73;;;4.50;99.90;;;;;;4954451;28;20186;-63
2022/01/12 11:35:37;;;;;;;14.73;12.27;;;4.40;99.90;;;;;;4954457;29;20229;-61
2022/01/12 11:38:04;;;;;;;15.23;11.83;;;3.90;99.90;;;;;;4954454;29;20185;-60
2022/01/12 11:40:37;;;;;;;14.53;11.23;;;3.70;99.90;;;;;;4953981;29;20171;-61
2022/01/12 11:43:05;;;;;;;15.43;11.97;;;3.70;99.90;;;;;;4955228;29;20198;-58
2022/01/12 11:45:31;;;;;;;15.60;11.93;;;3.60;99.90;;;;;;4954711;29;20179;-60
2022/01/12 11:47:57;;;;;;;15.03;11.50;;;3.70;99.90;;;;;;4954775;29;20193;-59
2022/01/12 11:50:22;;;;;;;13.47;11.23;;;3.80;99.90;;;;;;4954832;29;20179;-59
2022/01/12 11:52:48;;;;;;;15.87;11.67;;;3.90;99.90;;;;;;4955183;29;20182;-57
2022/01/12 11:55:17;;;;;;;15.63;11.70;;;3.90;99.90;;;;;;4954664;29;20202;-60
2022/01/12 11:57:51;;;;;;;15.43;12.03;;;4.00;99.90;;;;;;4954925;29;20174;-62
2022/01/12 12:00:20;;;;;;;14.93;11.90;;;4.10;99.90;;;;;;4955403;29;20183;-61
2022/01/12 12:02:48;;;;;;;13.00;10.90;;;4.00;99.90;;;;;;4954970;29;20179;-58
2022/01/12 12:05:23;;;;;;;17.37;13.53;;;4.20;99.90;;;;;;4955148;29;20237;-62
2022/01/12 12:08:01;;;;;;;16.23;12.37;;;4.20;99.90;;;;;;4938063;29;20249;-58
2022/01/12 12:10:29;;;;;;;15.67;12.17;;;4.20;99.90;;;;;;4949284;29;20191;-60
2022/01/12 12:12:56;;;;;;;15.67;12.33;;;4.20;99.90;;;;;;4945135;29;20179;-59
2022/01/12 12:15:23;;;;;;;16.90;13.13;;;4.10;99.90;;;;;;4943048;29;20214;-62
2022/01/12 12:17:50;;;;;;;15.03;10.93;;;4.00;99.90;;;;;;4945813;29;20197;-59
2022/01/12 12:20:19;;;;;;;16.97;12.37;;;4.00;99.90;;;;;;4949764;29;20269;-61
2022/01/12 12:22:47;;;;;;;14.60;11.50;;;3.90;99.90;;;;;;4954630;29;20210;-60
2022/01/12 12:25:19;;;;;;;15.50;12.57;;;3.80;99.90;;;;;;4954448;29;20551;-62
2022/01/12 12:27:52;;;;;;;15.37;11.83;;;3.80;99.90;;;;;;4954924;29;20179;-61
2022/01/12 12:30:19;;;;;;;15.43;12.30;;;3.80;99.90;;;;;;4954849;29;20257;-62
2022/01/12 12:32:48;;;;;;;16.23;12.50;;;3.80;99.90;;;;;;4954390;29;20194;-61
2022/01/12 12:35:23;;;;;;;17.60;13.43;;;3.90;99.90;;;;;;4954323;29;20199;-61
2022/01/12 12:37:55;;;;;;;17.93;13.17;;;3.90;99.90;;;;;;4955214;28;20186;-60
2022/01/12 12:40:28;;;;;;;16.13;12.33;;;3.90;99.90;;;;;;4973760;28;20539;-63
2022/01/12 12:43:22;;;;;;;16.20;12.93;;;4.00;99.90;;;;;;4973711;28;20170;-62
2022/01/12 12:46:14;;;;;;;16.83;13.00;;;3.90;99.90;;;;;;4973468;28;20166;-62
2022/01/12 12:48:40;;;;;;;18.07;13.97;;;3.80;99.90;;;;;;4973662;28;20265;-62
2022/01/12 12:51:13;;;;;;;23.10;17.00;;;3.90;99.90;;;;;;4973671;28;20178;-62
2022/01/12 12:53:56;;;;;;;15.87;12.50;;;3.80;99.90;;;;;;4973696;28;20194;-61
2022/01/12 12:56:27;;;;;;;14.97;11.73;;;3.50;99.90;;;;;;4973345;28;20201;-58
2022/01/12 12:58:55;;;;;;;16.83;11.77;;;3.30;99.90;;;;;;4973515;28;20154;-61
2022/01/12 13:01:23;;;;;;;16.07;12.30;;;3.30;99.90;;;;;;4973386;28;20170;-62
2022/01/12 13:03:54;;;;;;;16.80;12.27;;;3.10;99.90;;;;;;4973436;28;20201;-59
2022/01/12 13:06:26;;;;;;;15.03;12.03;;;3.20;99.90;;;;;;4973263;28;20174;-61
2022/01/12 13:08:54;;;;;;;17.33;13.87;;;3.10;99.90;;;;;;4973267;28;20257;-56
2022/01/12 13:11:27;;;;;;;16.10;12.47;;;3.00;99.90;;;;;;4966640;28;20178;-58
2022/01/12 13:14:02;;;;;;;17.83;14.43;;;2.80;99.90;;;;;;4954043;28;20222;-61
2022/01/12 13:16:27;;;;;;;17.20;13.27;;;2.70;99.90;;;;;;4953959;29;20205;-60
2022/01/12 13:19:05;;;;;;;18.57;13.83;;;2.80;99.90;;;;;;4954267;29;20677;-61
2022/01/12 13:21:33;;;;;;;17.20;12.97;;;2.80;99.90;;;;;;4954158;29;20178;-61
2022/01/12 13:23:59;;;;;;;16.73;12.43;;;3.00;99.90;;;;;;4953453;28;20198;-62
2022/01/12 13:26:31;;;;;;;16.63;13.30;;;3.00;99.90;;;;;;4950759;29;20556;-63
2022/01/12 13:28:57;;;;;;;18.17;13.80;;;3.10;99.90;;;;;;4953748;29;20230;-63
2022/01/12 13:31:23;;;;;;;17.90;12.70;;;3.10;99.90;;;;;;4968927;28;20177;-62
2022/01/12 13:33:52;;;;;;;17.43;13.50;;;3.20;99.90;;;;;;4953831;29;20680;-62
2022/01/12 13:36:20;;;;;;;17.80;13.17;;;3.10;99.90;;;;;;4968939;28;20206;-59
2022/01/12 13:38:53;;;;;;;18.17;14.30;;;3.00;99.90;;;;;;4953833;29;20384;-60
2022/01/12 13:41:22;;;;;;;18.13;14.00;;;3.10;99.90;;;;;;4952388;29;20182;-62
2022/01/12 13:43:56;;;;;;;17.20;13.33;;;3.20;99.90;;;;;;4953481;29;20258;-58
2022/01/12 13:46:29;;;;;;;17.83;13.57;;;3.10;99.90;;;;;;4953424;29;20201;-62
2022/01/12 13:49:10;;;;;;;19.57;14.33;;;3.00;99.90;;;;;;4954085;29;20182;-60
2022/01/12 13:51:37;;;;;;;18.83;14.07;;;3.00;99.90;;;;;;4952861;29;20201;-63
2022/01/12 13:54:10;;;;;;;17.30;13.60;;;2.90;99.90;;;;;;4954482;28;20212;-58
2022/01/12 13:56:39;;;;;;;16.43;13.90;;;2.90;99.90;;;;;;4955896;28;20179;-63
2022/01/12 13:59:06;;;;;;;17.17;13.53;;;2.90;99.90;;;;;;4928620;29;20201;-62
2022/01/12 14:01:33;;;;;;;17.53;13.73;;;2.90;99.90;;;;;;4953251;29;20183;-62
2022/01/12 14:04:08;;;;;;;16.10;13.00;;;2.90;99.90;;;;;;4949862;28;20194;-60